CheckWX is a tool to help pilots better visualize weather data.  It is not intended as a substitute for an official pre-flight weather briefing.

15:24:29 UTC

LDOS METAR
Osijek Airport
Osijek, Croatia
Current

24 mins ago

LDOS 101500Z 11010KT CAVOK 32/12 Q1014
Observed
Jul-10 @ 15:00 UTC
Wind
  • 110° at 10 KTS
Visibility
10,000+ meters
Flight Rules
VFR
Cloud Levels
  • Clear skies
Temperature
32°C / 90°F
Dewpoint
12°C / 54°F
Humidity
29%
Altimeter
29.94" Hg
Pressure
1013.92 hPa
Previous

54 mins ago

LDOS 101430Z 11010KT 080V140 CAVOK 32/12 Q1014
Observed
Jul-10 @ 14:30 UTC
Wind
  • 110° at 10 KTS
Visibility
10,000+ meters
Flight Rules
VFR
Cloud Levels
  • Clear skies
Temperature
32°C / 90°F
Dewpoint
12°C / 54°F
Humidity
29%
Altimeter
29.94" Hg
Pressure
1013.92 hPa
Previous

1 hour ago

LDOS 101400Z 10011KT CAVOK 32/13 Q1014
Observed
Jul-10 @ 14:00 UTC
Wind
  • 100° at 11 KTS
Visibility
10,000+ meters
Flight Rules
VFR
Cloud Levels
  • Clear skies
Temperature
32°C / 90°F
Dewpoint
13°C / 55°F
Humidity
31%
Altimeter
29.94" Hg
Pressure
1013.92 hPa